createdAt,value
2022-10-09T00:01:19.576Z,99724.72
2022-10-09T00:03:48.211Z,99720.22
2022-10-09T00:06:20.353Z,99723.78
2022-10-09T00:08:47.798Z,99731.66
2022-10-09T00:11:20.046Z,99729.00
2022-10-09T00:13:47.248Z,99730.75
2022-10-09T00:16:15.516Z,99730.75
2022-10-09T00:18:43.110Z,99733.41
2022-10-09T00:21:36.022Z,99736.91
2022-10-09T00:24:05.069Z,99739.50
2022-10-09T00:26:32.732Z,99745.72
2022-10-09T00:28:59.810Z,99745.75
2022-10-09T00:31:26.326Z,99746.69
2022-10-09T00:33:52.980Z,99742.31
2022-10-09T00:36:21.968Z,99736.06
2022-10-09T00:38:49.343Z,99743.91
2022-10-09T00:41:19.142Z,99736.97
2022-10-09T00:43:56.666Z,99733.34
2022-10-09T00:46:33.548Z,99744.72
2022-10-09T00:49:11.130Z,99745.63
2022-10-09T00:51:38.382Z,99741.22
2022-10-09T00:54:08.791Z,99743.88
2022-10-09T00:56:35.436Z,99742.97
2022-10-09T00:59:03.251Z,99743.00
2022-10-09T01:01:29.785Z,99747.34
2022-10-09T01:03:56.281Z,99742.09
2022-10-09T01:06:34.926Z,99747.41
2022-10-09T01:09:15.367Z,99743.84
2022-10-09T01:11:55.778Z,99749.09
2022-10-09T01:14:49.864Z,99742.81
2022-10-09T01:17:53.424Z,99740.94
2022-10-09T01:20:36.541Z,99740.84
2022-10-09T01:23:33.816Z,99748.88
2022-10-09T01:26:17.720Z,99745.41
2022-10-09T01:28:49.388Z,99747.16
2022-10-09T01:31:18.336Z,99747.94
2022-10-09T01:33:46.418Z,99743.53
2022-10-09T01:36:15.799Z,99741.72
2022-10-09T01:38:44.174Z,99744.41
2022-10-09T01:41:11.129Z,99736.47
2022-10-09T01:43:37.682Z,99741.81
2022-10-09T01:46:39.778Z,99733.91
2022-10-09T01:49:15.742Z,99738.34
2022-10-09T01:52:00.323Z,99741.66
2022-10-09T01:54:37.559Z,99734.66
2022-10-09T01:57:08.263Z,99736.53
2022-10-09T01:59:39.738Z,99729.53
2022-10-09T02:02:07.731Z,99736.53
2022-10-09T02:04:37.032Z,99733.81
2022-10-09T02:07:05.641Z,99741.66
2022-10-09T02:09:34.102Z,99740.75
2022-10-09T02:12:06.851Z,99740.78
2022-10-09T02:14:35.074Z,99736.34
2022-10-09T02:17:07.583Z,99735.38
2022-10-09T02:19:54.881Z,99748.38
2022-10-09T02:22:28.736Z,99730.72
2022-10-09T02:24:57.969Z,99735.97
2022-10-09T02:27:24.932Z,99738.59
2022-10-09T02:29:53.018Z,99737.59
2022-10-09T02:32:20.187Z,99745.59
2022-10-09T02:34:46.705Z,99746.41
2022-10-09T02:37:13.239Z,99749.94
2022-10-09T02:39:39.849Z,99745.47
2022-10-09T02:42:06.332Z,99745.34
2022-10-09T02:44:32.839Z,99747.09
2022-10-09T02:46:59.320Z,99741.78
2022-10-09T02:49:25.819Z,99744.41
2022-10-09T02:51:52.368Z,99740.94
2022-10-09T02:54:18.890Z,99745.31
2022-10-09T02:56:45.508Z,99742.56
2022-10-09T02:59:12.101Z,99747.06
2022-10-09T03:01:38.739Z,99746.97
2022-10-09T03:04:05.350Z,99745.19
2022-10-09T03:06:32.883Z,99746.94
2022-10-09T03:08:59.354Z,99741.56
2022-10-09T03:11:26.483Z,99745.06
2022-10-09T03:13:54.488Z,99755.56
2022-10-09T03:16:23.371Z,99746.84
2022-10-09T03:18:51.381Z,99747.72
2022-10-09T03:21:23.581Z,99745.94
2022-10-09T03:23:50.750Z,99749.44
2022-10-09T03:26:20.072Z,99750.34
2022-10-09T03:28:48.552Z,99753.84
2022-10-09T03:31:39.231Z,99747.72
2022-10-09T03:34:03.383Z,99756.63
2022-10-09T03:36:29.974Z,99749.53
2022-10-09T03:38:56.432Z,99759.25
2022-10-09T03:41:22.909Z,99744.22
2022-10-09T03:43:49.423Z,99755.44
2022-10-09T03:46:15.989Z,99757.13
2022-10-09T03:48:42.467Z,99765.97
2022-10-09T03:51:08.964Z,99765.00
2022-10-09T03:53:35.555Z,99759.56
2022-10-09T03:56:02.080Z,99759.53
2022-10-09T03:58:28.559Z,99763.06
2022-10-09T04:00:55.198Z,99766.53
2022-10-09T04:03:24.782Z,99763.88
2022-10-09T04:05:51.244Z,99770.03
2022-10-09T04:08:17.736Z,99762.97
2022-10-09T04:10:44.773Z,99772.56
2022-10-09T04:13:11.291Z,99776.06
2022-10-09T04:15:37.843Z,99775.16
2022-10-09T04:18:05.216Z,99774.31
2022-10-09T04:20:32.230Z,99771.75
2022-10-09T04:22:58.829Z,99777.03
2022-10-09T04:25:25.319Z,99775.28
2022-10-09T04:27:51.797Z,99788.41
2022-10-09T04:30:18.410Z,99790.06
2022-10-09T04:32:44.928Z,99780.31
2022-10-09T04:35:11.418Z,99785.72
2022-10-09T04:37:37.907Z,99781.47
2022-10-09T04:40:05.042Z,99794.63
2022-10-09T04:42:31.534Z,99782.41
2022-10-09T04:44:58.215Z,99779.81
2022-10-09T04:47:24.710Z,99784.25
2022-10-09T04:49:51.160Z,99780.63
2022-10-09T04:52:17.670Z,99775.31
2022-10-09T04:54:44.110Z,99780.63
2022-10-09T04:57:10.608Z,99780.63
2022-10-09T04:59:37.068Z,99771.78
2022-10-09T05:02:04.014Z,99777.06
2022-10-09T05:04:30.789Z,99779.59
2022-10-09T05:06:57.244Z,99768.09
2022-10-09T05:09:26.928Z,99776.91
2022-10-09T05:11:53.562Z,99778.69
2022-10-09T05:14:20.087Z,99784.72
2022-10-09T05:17:12.477Z,99771.59
2022-10-09T05:19:36.586Z,99780.28
2022-10-09T05:22:03.062Z,99774.06
2022-10-09T05:24:29.605Z,99778.34
2022-10-09T05:26:56.070Z,99787.06
2022-10-09T05:29:22.651Z,99781.78
2022-10-09T05:31:49.733Z,99780.81
2022-10-09T05:34:16.533Z,99775.38
2022-10-09T05:36:43.049Z,99783.16
2022-10-09T05:39:09.695Z,99780.50
2022-10-09T05:41:36.235Z,99782.47
2022-10-09T05:44:03.866Z,99783.06
2022-10-09T05:46:30.640Z,99775.78
2022-10-09T05:49:05.478Z,99779.88
2022-10-09T05:51:37.961Z,99789.91
2022-10-09T05:54:05.744Z,99775.25
2022-10-09T05:56:35.225Z,99780.66
2022-10-09T05:59:14.801Z,99780.69
2022-10-09T06:01:44.180Z,99780.69
2022-10-09T06:04:20.463Z,99775.28
2022-10-09T06:06:48.491Z,99782.53
2022-10-09T06:09:22.033Z,99780.13
2022-10-09T06:11:50.800Z,99778.34
2022-10-09T06:14:17.438Z,99783.63
2022-10-09T06:16:45.475Z,99775.84
2022-10-09T06:19:14.511Z,99781.25
2022-10-09T06:21:41.839Z,99781.38
2022-10-09T06:24:12.034Z,99788.31
2022-10-09T06:26:41.935Z,99782.28
2022-10-09T06:29:09.254Z,99784.19
2022-10-09T06:31:35.897Z,99788.63
2022-10-09T06:34:03.349Z,99789.44
2022-10-09T06:36:33.114Z,99788.66
2022-10-09T06:39:01.158Z,99795.06
2022-10-09T06:41:29.560Z,99793.38
2022-10-09T06:44:04.207Z,99797.88
2022-10-09T06:46:36.607Z,99801.44
2022-10-09T06:49:03.961Z,99806.81
2022-10-09T06:51:30.969Z,99803.41
2022-10-09T06:53:59.879Z,99808.06
2022-10-09T06:56:29.054Z,99810.84
2022-10-09T06:58:55.805Z,99806.66
2022-10-09T07:01:27.175Z,99809.44
2022-10-09T07:03:59.209Z,99814.81
2022-10-09T07:06:30.299Z,99812.41
2022-10-09T07:09:00.095Z,99820.38
2022-10-09T07:11:29.077Z,99816.13
2022-10-09T07:13:58.401Z,99815.28
2022-10-09T07:16:31.526Z,99814.53
2022-10-09T07:19:00.360Z,99819.03
2022-10-09T07:21:27.192Z,99822.53
2022-10-09T07:23:56.632Z,99827.09
2022-10-09T07:26:26.410Z,99826.25
2022-10-09T07:28:53.757Z,99821.81
2022-10-09T07:31:20.718Z,99826.03
2022-10-09T07:33:48.598Z,99829.53
2022-10-09T07:36:15.259Z,99830.63
2022-10-09T07:38:41.946Z,99828.88
2022-10-09T07:41:11.275Z,99831.75
2022-10-09T07:43:39.681Z,99830.19
2022-10-09T07:46:09.897Z,99838.31
2022-10-09T07:48:37.239Z,99831.44
2022-10-09T07:51:15.120Z,99837.69
2022-10-09T07:53:41.731Z,99836.13
2022-10-09T07:56:14.560Z,99841.56
2022-10-09T07:58:41.880Z,99843.41
2022-10-09T08:01:09.091Z,99841.84
2022-10-09T08:03:36.596Z,99832.25
2022-10-09T08:06:03.854Z,99827.94
2022-10-09T08:08:30.530Z,99833.25
2022-10-09T08:10:56.966Z,99833.44
2022-10-09T08:13:23.465Z,99818.63
2022-10-09T08:15:50.168Z,99819.63
2022-10-09T08:18:16.846Z,99823.22
2022-10-09T08:20:43.378Z,99820.66
2022-10-09T08:23:09.864Z,99819.94
2022-10-09T08:25:37.373Z,99820.13
2022-10-09T08:28:04.694Z,99821.97
2022-10-09T08:30:31.357Z,99822.03
2022-10-09T08:32:57.819Z,99818.63
2022-10-09T08:35:24.284Z,99826.72
2022-10-09T08:37:50.814Z,99826.84
2022-10-09T08:40:24.226Z,99824.31
2022-10-09T08:43:02.195Z,99819.09
2022-10-09T08:45:31.211Z,99815.59
2022-10-09T08:48:06.512Z,99822.81
2022-10-09T08:50:37.987Z,99819.44
2022-10-09T08:53:18.668Z,99828.31
2022-10-09T08:55:55.988Z,99811.50
2022-10-09T08:58:26.777Z,99811.53
2022-10-09T09:00:58.732Z,99821.38
2022-10-09T09:03:33.914Z,99815.25
2022-10-09T09:06:55.094Z,99812.69
2022-10-09T09:09:43.464Z,99811.78
2022-10-09T09:12:34.159Z,99804.69
2022-10-09T09:15:10.069Z,99810.06
2022-10-09T09:17:42.661Z,99813.59
2022-10-09T09:20:39.880Z,99804.75
2022-10-09T09:23:12.598Z,99808.28
2022-10-09T09:25:42.218Z,99810.06
2022-10-09T09:28:17.876Z,99802.97
2022-10-09T09:30:51.802Z,99806.50
2022-10-09T09:33:35.868Z,99802.06
2022-10-09T09:36:09.843Z,99796.75
2022-10-09T09:38:47.813Z,99798.53
2022-10-09T09:41:20.899Z,99793.19
2022-10-09T09:43:47.417Z,99790.50
2022-10-09T09:46:23.932Z,99788.75
2022-10-09T09:48:50.477Z,99783.44
2022-10-09T09:51:29.559Z,99784.31
2022-10-09T09:54:00.733Z,99782.53
2022-10-09T09:57:10.493Z,99778.03
2022-10-09T09:59:43.954Z,99768.19
2022-10-09T10:02:13.185Z,99770.03
2022-10-09T10:04:55.470Z,99769.13
2022-10-09T10:07:27.973Z,99758.56
2022-10-09T10:10:13.210Z,99759.44
2022-10-09T10:12:45.382Z,99763.81
2022-10-09T10:15:30.228Z,99752.25
2022-10-09T10:18:06.686Z,99745.09
2022-10-09T10:20:43.331Z,99746.91
2022-10-09T10:23:25.349Z,99746.03
2022-10-09T10:25:57.990Z,99739.69
2022-10-09T10:28:35.763Z,99740.56
2022-10-09T10:31:06.731Z,99734.50
2022-10-09T10:33:37.469Z,99737.16
2022-10-09T10:36:05.073Z,99730.00
2022-10-09T10:38:45.168Z,99730.88
2022-10-09T10:41:21.052Z,99732.59
2022-10-09T10:43:59.445Z,99721.94
2022-10-09T10:46:31.166Z,99713.94
2022-10-09T10:49:00.131Z,99716.56
2022-10-09T10:51:43.044Z,99715.53
2022-10-09T10:54:40.662Z,99708.50
2022-10-09T10:57:20.929Z,99706.50
2022-10-09T11:00:05.579Z,99708.25
2022-10-09T11:02:32.959Z,99702.03
2022-10-09T11:05:09.444Z,99705.66
2022-10-09T11:08:46.581Z,99704.69
2022-10-09T11:11:13.061Z,99697.63
2022-10-09T11:14:03.632Z,99695.13
2022-10-09T11:17:08.062Z,99688.84
2022-10-09T11:20:07.550Z,99679.84
2022-10-09T11:23:03.554Z,99678.94
2022-10-09T11:26:08.384Z,99672.78
2022-10-09T11:28:56.673Z,99668.31
2022-10-09T11:31:32.526Z,99669.09
2022-10-09T11:34:04.274Z,99662.69
2022-10-09T11:36:44.758Z,99654.72
2022-10-09T11:39:16.042Z,99661.00
2022-10-09T11:41:46.642Z,99649.38
2022-10-09T11:44:50.743Z,99645.81
2022-10-09T11:47:30.821Z,99639.63
2022-10-09T11:50:51.386Z,99640.47
2022-10-09T11:53:22.613Z,99633.06
2022-10-09T11:55:49.234Z,99619.66
2022-10-09T11:58:18.677Z,99626.00
2022-10-09T12:00:47.939Z,99622.50
2022-10-09T12:03:35.991Z,99608.28
2022-10-09T12:06:04.193Z,99611.81
2022-10-09T12:08:30.834Z,99601.69
2022-10-09T12:11:09.384Z,99603.28
2022-10-09T12:13:45.111Z,99595.22
2022-10-09T12:16:29.545Z,99578.44
2022-10-09T12:18:58.134Z,99583.09
2022-10-09T12:21:29.140Z,99578.59
2022-10-09T12:23:55.906Z,99577.59
2022-10-09T12:26:25.028Z,99573.22
2022-10-09T12:28:55.319Z,99574.97
2022-10-09T12:31:21.946Z,99574.97
2022-10-09T12:33:54.739Z,99569.69
2022-10-09T12:36:27.695Z,99569.47
2022-10-09T12:38:54.840Z,99561.34
2022-10-09T12:41:31.688Z,99565.75
2022-10-09T12:43:58.835Z,99568.59
2022-10-09T12:46:39.282Z,99560.59
2022-10-09T12:49:16.498Z,99559.84
2022-10-09T12:51:53.766Z,99559.09
2022-10-09T12:54:25.076Z,99551.91
2022-10-09T12:56:56.834Z,99552.72
2022-10-09T12:59:25.710Z,99544.78
2022-10-09T13:01:57.893Z,99542.19
2022-10-09T13:04:33.073Z,99538.56
2022-10-09T13:07:05.667Z,99539.41
2022-10-09T13:09:37.786Z,99535.28
2022-10-09T13:12:23.097Z,99532.88
2022-10-09T13:15:04.822Z,99537.38
2022-10-09T13:20:16.132Z,99527.22
2022-10-09T13:23:04.125Z,99516.53
2022-10-09T13:25:37.127Z,99515.63
2022-10-09T13:28:04.499Z,99515.72
2022-10-09T13:30:31.276Z,99514.09
2022-10-09T13:32:57.899Z,99512.31
2022-10-09T13:35:24.572Z,99513.41
2022-10-09T13:37:51.323Z,99515.16
2022-10-09T13:40:21.704Z,99508.13
2022-10-09T13:43:02.494Z,99503.63
2022-10-09T13:45:29.010Z,99504.50
2022-10-09T13:47:55.468Z,99503.63
2022-10-09T13:50:22.268Z,99499.19
2022-10-09T13:52:49.037Z,99498.28
2022-10-09T13:55:15.795Z,99491.13
2022-10-09T13:57:42.297Z,99484.94
2022-10-09T14:00:09.611Z,99489.34
2022-10-09T14:02:36.422Z,99481.38
2022-10-09T14:05:03.202Z,99484.03
2022-10-09T14:07:30.376Z,99480.44
2022-10-09T14:09:57.470Z,99471.63
2022-10-09T14:12:24.103Z,99472.53
2022-10-09T14:14:50.561Z,99481.50
2022-10-09T14:17:17.070Z,99480.56
2022-10-09T14:19:43.564Z,99470.78
2022-10-09T14:22:10.224Z,99468.13
2022-10-09T14:24:37.703Z,99459.25
2022-10-09T14:27:04.263Z,99449.50
2022-10-09T14:29:30.858Z,99452.19
2022-10-09T14:31:57.421Z,99449.59
2022-10-09T14:34:23.959Z,99444.28
2022-10-09T14:36:50.513Z,99442.50
2022-10-09T14:39:17.246Z,99431.88
2022-10-09T14:41:43.702Z,99431.88
2022-10-09T14:44:10.998Z,99431.06
2022-10-09T14:46:39.164Z,99428.44
2022-10-09T14:49:07.952Z,99427.66
2022-10-09T14:51:37.489Z,99420.53
2022-10-09T14:54:05.511Z,99424.09
2022-10-09T14:56:32.433Z,99416.13
2022-10-09T14:59:01.005Z,99416.16
2022-10-09T15:01:29.404Z,99409.13
2022-10-09T15:03:56.133Z,99404.72
2022-10-09T15:06:25.499Z,99413.66
2022-10-09T15:08:55.992Z,99410.09
2022-10-09T15:11:23.029Z,99406.56
2022-10-09T15:13:49.547Z,99406.56
2022-10-09T15:16:18.635Z,99405.66
2022-10-09T15:18:46.558Z,99403.03
2022-10-09T15:21:15.659Z,99407.47
2022-10-09T15:23:42.557Z,99398.63
2022-10-09T15:26:10.101Z,99397.81
2022-10-09T15:28:38.851Z,99402.38
2022-10-09T15:31:07.480Z,99396.28
2022-10-09T15:33:33.995Z,99391.84
2022-10-09T15:36:00.679Z,99382.09
2022-10-09T15:38:27.160Z,99387.47
2022-10-09T15:40:55.837Z,99379.63
2022-10-09T15:43:24.834Z,99380.59
2022-10-09T15:45:54.078Z,99385.03
2022-10-09T15:48:23.532Z,99381.53
2022-10-09T15:50:50.576Z,99378.00
2022-10-09T15:53:18.907Z,99378.06
2022-10-09T15:55:47.250Z,99381.66
2022-10-09T15:58:14.777Z,99379.03
2022-10-09T16:00:44.992Z,99375.56
2022-10-09T16:03:11.479Z,99369.34
2022-10-09T16:05:39.330Z,99369.38
2022-10-09T16:08:07.285Z,99365.00
2022-10-09T16:10:33.979Z,99366.75
2022-10-09T16:13:00.588Z,99358.75
2022-10-09T16:15:27.053Z,99364.09
2022-10-09T16:17:54.389Z,99362.44
2022-10-09T16:20:20.845Z,99358.06
2022-10-09T16:22:47.641Z,99361.69
2022-10-09T16:25:14.504Z,99361.69
2022-10-09T16:27:40.993Z,99357.31
2022-10-09T16:30:08.430Z,99355.59
2022-10-09T16:32:36.140Z,99360.00
2022-10-09T16:35:02.661Z,99360.94
2022-10-09T16:37:29.522Z,99352.97
2022-10-09T16:39:56.000Z,99360.94
2022-10-09T16:42:22.524Z,99359.16
2022-10-09T16:44:51.422Z,99364.47
2022-10-09T16:47:18.872Z,99366.25
2022-10-09T16:49:45.415Z,99363.59
2022-10-09T16:52:11.885Z,99364.50
2022-10-09T16:54:39.383Z,99359.19
2022-10-09T16:57:07.009Z,99362.72
2022-10-09T16:59:33.874Z,99358.31
2022-10-09T17:02:04.117Z,99365.34
2022-10-09T17:04:31.000Z,99360.03
2022-10-09T17:06:57.569Z,99355.59
2022-10-09T17:09:24.177Z,99352.97
2022-10-09T17:11:50.637Z,99348.53
2022-10-09T17:14:17.195Z,99356.44
2022-10-09T17:16:43.815Z,99354.63
2022-10-09T17:19:10.827Z,99351.06
2022-10-09T17:21:37.389Z,99344.00
2022-10-09T17:24:05.051Z,99344.91
2022-10-09T17:26:34.742Z,99345.78
2022-10-09T17:29:02.541Z,99347.53
2022-10-09T17:31:29.395Z,99346.66
2022-10-09T17:33:59.702Z,99353.72
2022-10-09T17:36:28.991Z,99355.50
2022-10-09T17:38:55.962Z,99346.66
2022-10-09T17:41:24.020Z,99347.53
2022-10-09T17:43:52.585Z,99344.00
2022-10-09T17:46:19.975Z,99342.25
2022-10-09T17:48:52.896Z,99340.47
2022-10-09T17:51:25.570Z,99339.63
2022-10-09T17:53:53.014Z,99345.81
2022-10-09T17:56:20.013Z,99343.97
2022-10-09T17:58:50.158Z,99343.06
2022-10-09T18:01:17.626Z,99335.06
2022-10-09T18:03:44.820Z,99341.19
2022-10-09T18:06:15.555Z,99340.25
2022-10-09T18:08:42.451Z,99347.25
2022-10-09T18:11:16.440Z,99335.69
2022-10-09T18:13:44.330Z,99330.47
2022-10-09T18:16:19.471Z,99323.41
2022-10-09T18:18:46.433Z,99329.59
2022-10-09T18:21:16.989Z,99325.19
2022-10-09T18:23:45.386Z,99322.59
2022-10-09T18:26:14.755Z,99323.47
2022-10-09T18:28:43.552Z,99318.19
2022-10-09T18:31:15.291Z,99312.81
2022-10-09T18:33:42.716Z,99311.06
2022-10-09T18:36:18.188Z,99308.41
2022-10-09T18:38:49.077Z,99313.72
2022-10-09T18:41:16.717Z,99317.16
2022-10-09T18:43:43.283Z,99310.94
2022-10-09T18:46:10.209Z,99307.41
2022-10-09T18:48:39.615Z,99296.00
2022-10-09T18:51:09.008Z,99296.91
2022-10-09T18:53:37.959Z,99303.09
2022-10-09T18:56:07.275Z,99303.06
2022-10-09T18:58:35.619Z,99305.66
2022-10-09T19:01:07.246Z,99304.75
2022-10-09T19:03:36.695Z,99303.06
2022-10-09T19:06:04.732Z,99299.53
2022-10-09T19:08:32.586Z,99298.56
2022-10-09T19:11:00.459Z,99293.16
2022-10-09T19:13:27.206Z,99293.06
2022-10-09T19:15:58.331Z,99284.13
2022-10-09T19:18:26.454Z,99284.13
2022-10-09T19:20:53.588Z,99279.69
2022-10-09T19:23:20.215Z,99285.06
2022-10-09T19:25:52.416Z,99279.72
2022-10-09T19:28:22.018Z,99278.81
2022-10-09T19:30:48.508Z,99276.31
2022-10-09T19:33:15.441Z,99272.53
2022-10-09T19:35:49.941Z,99265.34
2022-10-09T19:38:17.617Z,99275.03
2022-10-09T19:40:44.885Z,99271.53
2022-10-09T19:43:12.717Z,99269.56
2022-10-09T19:45:39.292Z,99270.50
2022-10-09T19:48:06.273Z,99267.00
2022-10-09T19:50:33.246Z,99266.22
2022-10-09T19:53:03.127Z,99254.84
2022-10-09T19:55:33.254Z,99253.88
2022-10-09T19:58:00.431Z,99252.13
2022-10-09T20:00:27.852Z,99246.81
2022-10-09T20:02:54.413Z,99246.75
2022-10-09T20:05:21.482Z,99244.09
2022-10-09T20:07:48.065Z,99245.06
2022-10-09T20:10:14.929Z,99244.09
2022-10-09T20:12:41.473Z,99237.91
2022-10-09T20:15:08.757Z,99230.03
2022-10-09T20:17:35.315Z,99230.91
2022-10-09T20:20:04.519Z,99238.88
2022-10-09T20:22:31.018Z,99233.44
2022-10-09T20:24:57.518Z,99234.41
2022-10-09T20:27:23.989Z,99230.84
2022-10-09T20:29:52.734Z,99234.28
2022-10-09T20:32:21.144Z,99221.97
2022-10-09T20:34:47.671Z,99228.16
2022-10-09T20:37:14.103Z,99212.31
2022-10-09T20:39:40.682Z,99214.03
2022-10-09T20:42:07.343Z,99209.72
2022-10-09T20:44:33.909Z,99200.94
2022-10-09T20:47:00.402Z,99207.94
2022-10-09T20:49:26.973Z,99203.25
2022-10-09T20:51:53.557Z,99197.09
2022-10-09T20:54:21.807Z,99205.66
2022-10-09T20:56:48.904Z,99192.06
2022-10-09T20:59:16.165Z,99194.69
2022-10-09T21:01:43.155Z,99180.69
2022-10-09T21:04:11.579Z,99188.72
2022-10-09T21:06:38.630Z,99184.44
2022-10-09T21:09:05.104Z,99173.84
2022-10-09T21:11:38.961Z,99167.69
2022-10-09T21:14:05.672Z,99172.16
2022-10-09T21:16:32.236Z,99162.31
2022-10-09T21:19:02.437Z,99167.69
2022-10-09T21:21:29.535Z,99157.00
2022-10-09T21:23:58.158Z,99155.88
2022-10-09T21:26:27.213Z,99155.88
2022-10-09T21:28:58.445Z,99158.56
2022-10-09T21:31:28.542Z,99155.13
2022-10-09T21:33:55.584Z,99150.72
2022-10-09T21:37:02.322Z,99144.50
2022-10-09T21:39:30.867Z,99145.50
2022-10-09T21:41:57.376Z,99145.59
2022-10-09T21:44:23.928Z,99143.81
2022-10-09T21:46:50.374Z,99142.00
2022-10-09T21:49:21.149Z,99140.22
2022-10-09T21:51:48.317Z,99135.91
2022-10-09T21:54:14.865Z,99136.81
2022-10-09T21:56:41.389Z,99124.47
2022-10-09T21:59:08.198Z,99134.16
2022-10-09T22:01:34.840Z,99126.25
2022-10-09T22:04:01.507Z,99126.16
2022-10-09T22:06:27.949Z,99130.63
2022-10-09T22:08:54.435Z,99123.22
2022-10-09T22:11:20.920Z,99117.91
2022-10-09T22:13:47.527Z,99124.13
2022-10-09T22:16:15.671Z,99116.19
2022-10-09T22:18:45.452Z,99116.97
2022-10-09T22:21:14.817Z,99112.56
2022-10-09T22:23:41.923Z,99111.69
2022-10-09T22:26:12.752Z,99112.66
2022-10-09T22:28:39.536Z,99105.50
2022-10-09T22:31:07.687Z,99110.81
2022-10-09T22:33:35.510Z,99107.34
2022-10-09T22:36:04.572Z,99102.81
2022-10-09T22:38:31.111Z,99092.03
2022-10-09T22:41:08.687Z,99098.19
2022-10-09T22:43:36.095Z,99094.63
2022-10-09T22:46:15.281Z,99096.09
2022-10-09T22:48:43.969Z,99092.34
2022-10-09T22:51:12.916Z,99090.81
2022-10-09T22:53:40.110Z,99095.03
2022-10-09T22:56:09.105Z,99091.69
2022-10-09T22:58:35.677Z,99081.78
2022-10-09T23:01:08.798Z,99077.38
2022-10-09T23:03:35.906Z,99088.19
2022-10-09T23:06:13.445Z,99082.19
2022-10-09T23:08:41.739Z,99080.44
2022-10-09T23:11:08.841Z,99083.78
2022-10-09T23:13:35.390Z,99080.34
2022-10-09T23:16:07.210Z,99074.25
2022-10-09T23:18:34.536Z,99067.38
2022-10-09T23:21:14.887Z,99077.97
2022-10-09T23:23:42.434Z,99071.81
2022-10-09T23:26:12.193Z,99066.63
2022-10-09T23:28:39.097Z,99061.25
2022-10-09T23:31:11.596Z,99065.66
2022-10-09T23:33:39.761Z,99057.72
2022-10-09T23:36:27.217Z,99061.09
2022-10-09T23:38:54.523Z,99056.59
2022-10-09T23:41:24.756Z,99060.97
2022-10-09T23:43:52.290Z,99056.63
2022-10-09T23:46:22.202Z,99047.81
2022-10-09T23:48:49.814Z,99047.78
2022-10-09T23:51:18.115Z,99052.44
2022-10-09T23:53:44.731Z,99048.13
2022-10-09T23:56:26.015Z,99038.84
2022-10-09T23:58:53.713Z,99040.19
